createdAt,value
2019-02-21T00:01:21.390Z,4.65
2019-02-21T00:03:50.653Z,4.66
2019-02-21T00:06:19.933Z,4.62
2019-02-21T00:08:49.267Z,4.62
2019-02-21T00:11:18.635Z,4.62
2019-02-21T00:13:47.939Z,4.63
2019-02-21T00:16:17.267Z,4.61
2019-02-21T00:18:46.552Z,4.60
2019-02-21T00:21:15.795Z,4.57
2019-02-21T00:23:45.100Z,4.58
2019-02-21T00:26:14.458Z,4.56
2019-02-21T00:28:43.781Z,4.57
2019-02-21T00:31:13.171Z,4.55
2019-02-21T00:33:42.550Z,4.58
2019-02-21T00:36:11.880Z,4.61
2019-02-21T00:38:41.129Z,4.64
2019-02-21T00:41:10.420Z,4.62
2019-02-21T00:43:39.686Z,4.63
2019-02-21T00:46:08.968Z,4.67
2019-02-21T00:48:38.332Z,4.67
2019-02-21T00:51:07.735Z,4.70
2019-02-21T00:53:37.152Z,4.72
2019-02-21T00:56:06.395Z,4.73
2019-02-21T00:58:35.695Z,4.75
2019-02-21T01:01:05.029Z,4.78
2019-02-21T01:03:34.359Z,4.81
2019-02-21T01:06:03.697Z,4.86
2019-02-21T01:08:32.941Z,4.90
2019-02-21T01:11:02.256Z,4.88
2019-02-21T01:13:31.496Z,4.89
2019-02-21T01:16:00.819Z,4.96
2019-02-21T01:18:30.193Z,4.97
2019-02-21T01:20:59.496Z,5.05
2019-02-21T01:23:28.871Z,5.06
2019-02-21T01:25:58.250Z,5.02
2019-02-21T01:28:27.542Z,5.03
2019-02-21T01:30:57.356Z,5.02
2019-02-21T01:33:26.849Z,5.03
2019-02-21T01:35:56.219Z,5.03
2019-02-21T01:38:25.534Z,4.99
2019-02-21T01:40:54.914Z,5.01
2019-02-21T01:43:24.244Z,5.09
2019-02-21T01:45:53.523Z,5.13
2019-02-21T01:48:22.846Z,5.11
2019-02-21T01:50:52.178Z,5.07
2019-02-21T01:53:21.536Z,5.08
2019-02-21T01:55:50.957Z,5.07
2019-02-21T01:58:20.336Z,5.05
2019-02-21T02:00:49.676Z,5.04
2019-02-21T02:03:19.095Z,5.04
2019-02-21T02:05:48.396Z,5.06
2019-02-21T02:08:17.657Z,5.06
2019-02-21T02:10:47.170Z,4.99
2019-02-21T02:13:24.005Z,5.00
2019-02-21T02:15:47.526Z,5.03
2019-02-21T02:18:16.840Z,5.04
2019-02-21T02:20:46.153Z,5.00
2019-02-21T02:23:15.453Z,5.01
2019-02-21T02:25:44.808Z,5.05
2019-02-21T02:28:14.138Z,5.03
2019-02-21T02:30:43.431Z,5.04
2019-02-21T02:33:12.784Z,5.02
2019-02-21T02:35:42.132Z,5.01
2019-02-21T02:38:11.379Z,4.98
2019-02-21T02:40:40.676Z,4.93
2019-02-21T02:43:09.911Z,4.90
2019-02-21T02:45:39.182Z,4.96
2019-02-21T02:48:08.533Z,4.95
2019-02-21T02:50:37.917Z,4.97
2019-02-21T02:53:07.237Z,4.93
2019-02-21T02:55:36.501Z,4.91
2019-02-21T02:58:06.669Z,4.95
2019-02-21T03:00:36.033Z,4.95
2019-02-21T03:03:05.353Z,4.98
2019-02-21T03:05:34.709Z,4.99
2019-02-21T03:08:04.052Z,4.99
2019-02-21T03:10:33.443Z,4.98
2019-02-21T03:13:02.784Z,5.02
2019-02-21T03:17:54.958Z,5.04
2019-02-21T03:20:24.256Z,4.97
2019-02-21T03:22:53.558Z,4.97
2019-02-21T03:25:22.866Z,5.00
2019-02-21T03:27:52.189Z,5.01
2019-02-21T03:30:21.555Z,5.05
2019-02-21T03:32:50.807Z,5.03
2019-02-21T03:35:20.163Z,5.01
2019-02-21T03:37:49.511Z,4.96
2019-02-21T03:40:18.781Z,4.95
2019-02-21T03:42:48.077Z,4.93
2019-02-21T03:45:17.397Z,4.91
2019-02-21T03:47:46.681Z,4.88
2019-02-21T03:50:15.970Z,4.87
2019-02-21T03:52:45.325Z,4.88
2019-02-21T03:55:14.663Z,4.86
2019-02-21T03:57:44.036Z,4.87
2019-02-21T04:00:13.570Z,4.87
2019-02-21T04:02:42.987Z,4.86
2019-02-21T04:05:12.267Z,4.88
2019-02-21T04:07:41.563Z,4.89
2019-02-21T04:10:10.933Z,4.88
2019-02-21T04:12:40.298Z,4.87
2019-02-21T04:15:10.997Z,4.88
2019-02-21T04:17:40.367Z,4.84
2019-02-21T04:20:09.645Z,4.83
2019-02-21T04:22:38.934Z,4.82
2019-02-21T04:25:08.271Z,4.82
2019-02-21T04:27:37.544Z,4.82
2019-02-21T04:30:06.938Z,4.83
2019-02-21T04:32:36.246Z,4.86
2019-02-21T04:35:05.676Z,4.84
2019-02-21T04:37:35.005Z,4.82
2019-02-21T04:40:04.603Z,4.82
2019-02-21T04:42:33.897Z,4.78
2019-02-21T04:45:03.222Z,4.80
2019-02-21T04:47:32.537Z,4.89
2019-02-21T04:50:01.853Z,4.90
2019-02-21T04:52:31.171Z,4.88
2019-02-21T04:55:00.533Z,4.91
2019-02-21T04:57:29.803Z,4.92
2019-02-21T04:59:59.160Z,4.92
2019-02-21T05:02:29.733Z,4.95
2019-02-21T05:04:59.107Z,4.94
2019-02-21T05:07:28.486Z,4.97
2019-02-21T05:09:58.532Z,5.00
2019-02-21T05:12:27.964Z,5.05
2019-02-21T05:14:57.368Z,5.05
2019-02-21T05:17:26.662Z,5.07
2019-02-21T05:19:55.946Z,5.05
2019-02-21T05:22:25.237Z,5.07
2019-02-21T05:24:54.545Z,5.04
2019-02-21T05:27:27.957Z,5.06
2019-02-21T05:29:57.211Z,5.10
2019-02-21T05:32:42.680Z,5.10
2019-02-21T05:35:31.469Z,5.08
2019-02-21T05:38:19.715Z,5.11
2019-02-21T05:41:06.262Z,5.16
2019-02-21T05:44:00.698Z,5.12
2019-02-21T05:46:47.387Z,5.10
2019-02-21T05:49:47.580Z,5.12
2019-02-21T05:52:30.386Z,5.16
2019-02-21T05:55:04.524Z,5.16
2019-02-21T05:57:42.658Z,5.15
2019-02-21T06:00:46.210Z,5.15
2019-02-21T06:03:43.269Z,5.14
2019-02-21T06:06:31.529Z,5.08
2019-02-21T06:09:24.279Z,5.06
2019-02-21T06:12:06.102Z,5.08
2019-02-21T06:14:42.958Z,5.07
2019-02-21T06:17:34.192Z,5.07
2019-02-21T06:20:25.658Z,5.15
2019-02-21T06:23:06.480Z,5.12
2019-02-21T06:25:50.858Z,5.17
2019-02-21T06:28:25.884Z,5.16
2019-02-21T06:31:07.933Z,5.13
2019-02-21T06:33:37.268Z,5.14
2019-02-21T06:36:06.560Z,5.12
2019-02-21T06:38:35.854Z,5.11
2019-02-21T06:41:05.213Z,5.11
2019-02-21T06:43:34.748Z,5.16
2019-02-21T06:46:04.052Z,5.19
2019-02-21T06:48:34.933Z,5.25
2019-02-21T06:51:04.291Z,5.26
2019-02-21T06:53:33.593Z,5.25
2019-02-21T06:56:02.898Z,5.21
2019-02-21T06:58:32.258Z,5.21
2019-02-21T07:01:01.948Z,5.27
2019-02-21T07:03:31.248Z,5.27
2019-02-21T07:06:00.572Z,5.26
2019-02-21T07:08:29.853Z,5.24
2019-02-21T07:11:06.268Z,5.27
2019-02-21T07:13:30.276Z,5.31
2019-02-21T07:15:59.639Z,5.33
2019-02-21T07:18:29.122Z,5.33
2019-02-21T07:20:58.429Z,5.35
2019-02-21T07:23:28.207Z,5.39
2019-02-21T07:26:00.960Z,5.40
2019-02-21T07:28:30.277Z,5.41
2019-02-21T07:30:59.593Z,5.44
2019-02-21T07:33:29.139Z,5.47
2019-02-21T07:35:58.405Z,5.45
2019-02-21T07:38:27.694Z,5.48
2019-02-21T07:40:57.032Z,5.50
2019-02-21T07:43:26.340Z,5.48
2019-02-21T07:45:55.931Z,5.49
2019-02-21T07:48:25.342Z,5.51
2019-02-21T07:50:54.610Z,5.52
2019-02-21T07:53:23.917Z,5.55
2019-02-21T07:55:55.746Z,5.57
2019-02-21T07:58:24.296Z,5.60
2019-02-21T08:00:54.171Z,5.60
2019-02-21T08:03:30.320Z,5.68
2019-02-21T08:05:54.486Z,5.67
2019-02-21T08:08:23.822Z,5.67
2019-02-21T08:10:53.144Z,5.65
2019-02-21T08:13:22.478Z,5.68
2019-02-21T08:15:51.746Z,5.65
2019-02-21T08:18:21.040Z,5.70
2019-02-21T08:20:50.391Z,5.68
2019-02-21T08:23:19.717Z,5.67
2019-02-21T08:25:49.002Z,5.66
2019-02-21T08:28:18.306Z,5.68
2019-02-21T08:30:47.599Z,5.69
2019-02-21T08:33:27.990Z,5.70
2019-02-21T08:35:57.996Z,5.72
2019-02-21T08:38:27.405Z,5.74
2019-02-21T08:40:57.255Z,5.74
2019-02-21T08:43:26.625Z,5.76
2019-02-21T08:45:57.555Z,5.77
2019-02-21T08:48:27.229Z,5.80
2019-02-21T08:50:56.541Z,5.81
2019-02-21T08:53:28.018Z,5.85
2019-02-21T08:55:56.886Z,5.90
2019-02-21T08:58:26.171Z,5.91
2019-02-21T09:00:55.475Z,5.94
2019-02-21T09:03:24.853Z,5.98
2019-02-21T09:05:54.171Z,5.90
2019-02-21T09:08:33.035Z,5.81
2019-02-21T09:10:54.453Z,5.77
2019-02-21T09:13:24.037Z,5.83
2019-02-21T09:15:55.836Z,5.86
2019-02-21T09:18:24.405Z,5.85
2019-02-21T09:20:53.745Z,5.82
2019-02-21T09:23:23.061Z,5.77
2019-02-21T09:25:52.396Z,5.76
2019-02-21T09:28:21.715Z,5.58
2019-02-21T09:30:51.028Z,5.42
2019-02-21T09:33:21.337Z,5.38
2019-02-21T09:35:51.010Z,5.22
2019-02-21T09:38:20.324Z,5.16
2019-02-21T09:40:49.645Z,5.15
2019-02-21T09:43:18.928Z,5.07
2019-02-21T09:45:48.262Z,5.01
2019-02-21T09:48:17.652Z,4.91
2019-02-21T09:50:47.568Z,4.88
2019-02-21T09:53:16.850Z,4.97
2019-02-21T09:55:46.195Z,4.78
2019-02-21T09:58:15.555Z,4.83
2019-02-21T10:00:44.806Z,4.68
2019-02-21T10:03:14.146Z,4.47
2019-02-21T10:05:43.519Z,4.56
2019-02-21T10:08:12.858Z,4.56
2019-02-21T10:10:42.116Z,4.59
2019-02-21T10:13:13.265Z,4.63
2019-02-21T10:15:42.989Z,4.73
2019-02-21T10:18:12.334Z,4.90
2019-02-21T10:20:41.595Z,4.98
2019-02-21T10:23:10.971Z,4.98
2019-02-21T10:25:40.304Z,5.03
2019-02-21T10:28:09.592Z,5.04
2019-02-21T10:30:38.928Z,4.97
2019-02-21T10:33:08.199Z,4.99
2019-02-21T10:35:37.458Z,4.93
2019-02-21T10:38:06.774Z,4.82
2019-02-21T10:40:36.042Z,4.80
2019-02-21T10:43:05.405Z,4.72
2019-02-21T10:45:34.780Z,4.61
2019-02-21T10:48:04.275Z,4.58
2019-02-21T10:50:33.628Z,4.31
2019-02-21T10:53:03.103Z,4.28
2019-02-21T10:55:32.416Z,4.24
2019-02-21T10:58:01.807Z,4.21
2019-02-21T11:00:31.204Z,4.12
2019-02-21T11:03:00.449Z,4.18
2019-02-21T11:05:29.757Z,4.16
2019-02-21T11:07:59.103Z,4.07
2019-02-21T11:10:28.743Z,4.09
2019-02-21T11:12:58.066Z,4.13
2019-02-21T11:15:27.500Z,4.16
2019-02-21T11:17:56.897Z,4.11
2019-02-21T11:20:26.154Z,4.02
2019-02-21T11:22:55.416Z,4.00
2019-02-21T11:25:24.703Z,4.04
2019-02-21T11:27:54.071Z,4.04
2019-02-21T11:30:23.407Z,3.98
2019-02-21T11:32:52.666Z,3.95
2019-02-21T11:35:21.962Z,3.97
2019-02-21T11:37:51.291Z,4.06
2019-02-21T11:40:20.584Z,4.05
2019-02-21T11:42:49.869Z,4.04
2019-02-21T11:45:19.718Z,4.05
2019-02-21T11:47:49.024Z,4.01
2019-02-21T11:50:18.309Z,4.00
2019-02-21T11:52:47.638Z,4.03
2019-02-21T11:55:21.612Z,4.08
2019-02-21T11:57:50.927Z,4.10
2019-02-21T12:00:24.684Z,4.01
2019-02-21T12:02:54.061Z,4.02
2019-02-21T12:05:30.530Z,3.95
2019-02-21T12:07:54.626Z,3.95
2019-02-21T12:10:23.995Z,3.87
2019-02-21T12:12:53.548Z,3.77
2019-02-21T12:15:22.875Z,3.68
2019-02-21T12:17:52.193Z,3.65
2019-02-21T12:20:21.470Z,3.63
2019-02-21T12:22:50.756Z,3.71
2019-02-21T12:25:20.180Z,3.68
2019-02-21T12:27:49.515Z,3.59
2019-02-21T12:30:19.182Z,3.51
2019-02-21T12:32:48.471Z,3.52
2019-02-21T12:35:28.826Z,3.47
2019-02-21T12:37:48.957Z,3.52
2019-02-21T12:40:18.974Z,3.46
2019-02-21T12:42:48.232Z,3.42
2019-02-21T12:45:18.942Z,3.39
2019-02-21T12:47:52.852Z,3.43
2019-02-21T12:50:19.258Z,3.52
2019-02-21T12:52:48.583Z,3.46
2019-02-21T12:55:27.251Z,3.38
2019-02-21T12:57:49.034Z,3.35
2019-02-21T13:00:18.984Z,3.29
2019-02-21T13:02:48.306Z,3.31
2019-02-21T13:05:17.781Z,3.32
2019-02-21T13:07:47.145Z,3.26
2019-02-21T13:10:17.639Z,3.30
2019-02-21T13:12:46.935Z,3.21
2019-02-21T13:15:16.223Z,3.20
2019-02-21T13:17:45.672Z,3.21
2019-02-21T13:20:15.261Z,3.26
2019-02-21T13:22:44.679Z,3.19
2019-02-21T13:25:14.212Z,3.25
2019-02-21T13:27:43.479Z,3.31
2019-02-21T13:30:14.581Z,3.22
2019-02-21T13:32:43.891Z,3.30
2019-02-21T13:35:13.242Z,3.24
2019-02-21T13:37:42.626Z,3.26
2019-02-21T13:40:13.158Z,3.11
2019-02-21T13:42:42.487Z,3.15
2019-02-21T13:45:12.864Z,3.12
2019-02-21T13:47:42.151Z,3.14
2019-02-21T13:50:13.551Z,3.11
2019-02-21T13:52:42.833Z,3.03
2019-02-21T13:55:12.247Z,3.02
2019-02-21T13:57:41.560Z,2.93
2019-02-21T14:00:13.836Z,2.90
2019-02-21T14:02:43.224Z,2.98
2019-02-21T14:05:12.589Z,2.99
2019-02-21T14:07:41.873Z,3.03
2019-02-21T14:10:11.704Z,2.99
2019-02-21T14:12:41.050Z,2.94
2019-02-21T14:15:12.874Z,2.92
2019-02-21T14:17:42.232Z,2.90
2019-02-21T14:20:11.643Z,2.89
2019-02-21T14:22:40.927Z,2.89
2019-02-21T14:25:10.242Z,2.84
2019-02-21T14:27:39.538Z,2.87
2019-02-21T14:30:11.246Z,2.82
2019-02-21T14:32:40.543Z,2.76
2019-02-21T14:35:10.867Z,2.77
2019-02-21T14:37:40.180Z,2.74
2019-02-21T14:40:10.486Z,2.74
2019-02-21T14:42:39.974Z,2.78
2019-02-21T14:45:12.606Z,2.73
2019-02-21T14:47:41.989Z,2.71
2019-02-21T14:50:11.545Z,2.64
2019-02-21T14:52:40.839Z,2.69
2019-02-21T14:55:10.966Z,2.71
2019-02-21T14:57:41.322Z,2.75
2019-02-21T15:00:16.838Z,2.69
2019-02-21T15:02:46.164Z,2.64
2019-02-21T15:05:15.446Z,2.64
2019-02-21T15:07:44.763Z,2.68
2019-02-21T15:10:14.697Z,2.63
2019-02-21T15:12:44.072Z,2.61
2019-02-21T15:15:14.626Z,2.66
2019-02-21T15:17:43.978Z,2.67
2019-02-21T15:20:14.147Z,2.55
2019-02-21T15:22:43.436Z,2.51
2019-02-21T15:25:12.714Z,2.48
2019-02-21T15:27:41.993Z,2.45
2019-02-21T15:30:13.619Z,2.46
2019-02-21T15:32:44.744Z,2.45
2019-02-21T15:35:14.103Z,2.40
2019-02-21T15:37:45.077Z,2.35
2019-02-21T15:40:14.589Z,2.39
2019-02-21T15:42:43.924Z,2.38
2019-02-21T15:45:22.988Z,2.37
2019-02-21T15:47:46.230Z,2.32
2019-02-21T15:50:15.498Z,2.29
2019-02-21T15:52:44.989Z,2.28
2019-02-21T15:55:14.994Z,2.32
2019-02-21T15:57:44.303Z,2.32
2019-02-21T16:00:15.457Z,2.29
2019-02-21T16:02:44.880Z,2.23
2019-02-21T16:05:14.312Z,2.23
2019-02-21T16:07:43.648Z,2.26
2019-02-21T16:10:15.054Z,2.25
2019-02-21T16:12:45.053Z,2.26
2019-02-21T16:15:16.377Z,2.30
2019-02-21T16:17:45.778Z,2.28
2019-02-21T16:20:15.335Z,2.28
2019-02-21T16:22:44.770Z,2.30
2019-02-21T16:25:19.322Z,2.25
2019-02-21T16:27:48.611Z,2.33
2019-02-21T16:30:17.876Z,2.29
2019-02-21T16:32:47.182Z,2.26
2019-02-21T16:35:16.508Z,2.25
2019-02-21T16:37:45.807Z,2.31
2019-02-21T16:40:15.312Z,2.28
2019-02-21T16:42:44.695Z,2.22
2019-02-21T16:45:14.662Z,2.21
2019-02-21T16:47:43.985Z,2.21
2019-02-21T16:50:13.809Z,2.14
2019-02-21T16:52:43.098Z,2.09
2019-02-21T16:55:14.700Z,2.13
2019-02-21T16:57:43.988Z,2.15
2019-02-21T17:00:14.334Z,2.17
2019-02-21T17:02:43.648Z,2.05
2019-02-21T17:05:13.963Z,2.04
2019-02-21T17:07:43.345Z,2.05
2019-02-21T17:10:14.472Z,2.08
2019-02-21T17:12:43.721Z,2.04
2019-02-21T17:15:13.353Z,2.07
2019-02-21T17:17:42.743Z,2.06
2019-02-21T17:20:13.554Z,2.01
2019-02-21T17:22:42.805Z,2.09
2019-02-21T17:25:12.951Z,2.05
2019-02-21T17:27:42.423Z,2.05
2019-02-21T17:30:14.672Z,2.08
2019-02-21T17:32:43.961Z,2.08
2019-02-21T17:35:13.533Z,2.14
2019-02-21T17:37:42.881Z,2.18
2019-02-21T17:40:14.684Z,2.07
2019-02-21T17:42:43.961Z,2.07
2019-02-21T17:45:13.580Z,2.01
2019-02-21T17:47:42.896Z,2.05
2019-02-21T17:50:12.678Z,1.93
2019-02-21T17:52:41.975Z,2.01
2019-02-21T17:55:11.491Z,1.93
2019-02-21T17:57:40.793Z,1.94
2019-02-21T18:00:13.430Z,1.87
2019-02-21T18:02:42.764Z,1.82
2019-02-21T18:05:12.055Z,1.79
2019-02-21T18:07:41.363Z,1.80
2019-02-21T18:10:12.476Z,1.76
2019-02-21T18:12:41.760Z,1.77
2019-02-21T18:15:11.324Z,1.72
2019-02-21T18:17:40.588Z,1.72
2019-02-21T18:20:10.896Z,1.67
2019-02-21T18:22:40.269Z,1.66
2019-02-21T18:25:12.758Z,1.62
2019-02-21T18:27:42.071Z,1.63
2019-02-21T18:30:12.966Z,1.57
2019-02-21T18:32:42.253Z,1.55
2019-02-21T18:35:11.984Z,1.49
2019-02-21T18:37:47.386Z,1.45
2019-02-21T18:40:17.361Z,1.39
2019-02-21T18:42:45.034Z,1.41
2019-02-21T18:45:14.452Z,1.38
2019-02-21T18:47:43.798Z,1.34
2019-02-21T18:50:13.151Z,1.32
2019-02-21T18:52:42.451Z,1.33
2019-02-21T18:55:11.840Z,1.35
2019-02-21T18:57:41.185Z,1.30
2019-02-21T19:00:12.224Z,1.32
2019-02-21T19:02:41.536Z,1.30
2019-02-21T19:05:10.863Z,1.31
2019-02-21T19:07:40.163Z,1.32
2019-02-21T19:10:11.258Z,1.25
2019-02-21T19:12:40.538Z,1.21
2019-02-21T19:15:09.975Z,1.23
2019-02-21T19:17:39.266Z,1.21
2019-02-21T19:20:09.923Z,1.27
2019-02-21T19:22:39.271Z,1.24
2019-02-21T19:25:09.408Z,1.24
2019-02-21T19:27:38.773Z,1.23
2019-02-21T19:30:11.748Z,1.28
2019-02-21T19:32:41.065Z,1.25
2019-02-21T19:35:10.447Z,1.25
2019-02-21T19:37:39.870Z,1.20
2019-02-21T19:40:09.487Z,1.18
2019-02-21T19:42:38.838Z,1.21
2019-02-21T19:45:08.502Z,1.22
2019-02-21T19:47:37.773Z,1.23
2019-02-21T19:50:07.395Z,1.22
2019-02-21T19:52:36.833Z,1.18
2019-02-21T19:55:06.282Z,1.19
2019-02-21T19:57:35.561Z,1.16
2019-02-21T20:00:05.012Z,1.16
2019-02-21T20:02:34.395Z,1.15
2019-02-21T20:05:03.675Z,1.03
2019-02-21T20:07:33.046Z,1.02
2019-02-21T20:10:02.458Z,0.99
2019-02-21T20:12:31.773Z,1.03
2019-02-21T20:15:01.015Z,1.10
2019-02-21T20:17:30.339Z,1.11
2019-02-21T20:19:59.615Z,1.07
2019-02-21T20:22:28.991Z,1.10
2019-02-21T20:24:58.376Z,1.09
2019-02-21T20:27:27.659Z,1.12
2019-02-21T20:29:56.905Z,1.11
2019-02-21T20:32:26.278Z,0.95
2019-02-21T20:34:55.729Z,0.80
2019-02-21T20:37:25.050Z,0.76
2019-02-21T20:39:55.161Z,0.78
2019-02-21T20:42:24.655Z,0.75
2019-02-21T20:44:54.086Z,0.74
2019-02-21T20:47:23.503Z,0.71
2019-02-21T20:49:52.795Z,0.76
2019-02-21T20:52:22.273Z,0.73
2019-02-21T20:54:51.593Z,0.72
2019-02-21T20:57:20.971Z,0.70
2019-02-21T20:59:50.408Z,0.70
2019-02-21T21:02:19.740Z,0.68
2019-02-21T21:04:49.001Z,0.64
2019-02-21T21:07:25.016Z,0.43
2019-02-21T21:09:49.380Z,0.33
2019-02-21T21:12:18.705Z,0.32
2019-02-21T21:14:47.991Z,0.29
2019-02-21T21:17:17.303Z,0.28
2019-02-21T21:19:46.574Z,0.19
2019-02-21T21:22:16.016Z,0.16
2019-02-21T21:24:45.364Z,0.16
2019-02-21T21:27:14.661Z,0.13
2019-02-21T21:29:44.007Z,0.11
2019-02-21T21:32:13.365Z,0.09
2019-02-21T21:34:42.857Z,-0.03
2019-02-21T21:37:12.228Z,-0.02
2019-02-21T21:39:41.527Z,0.01
2019-02-21T21:42:10.826Z,0.01
2019-02-21T21:44:40.323Z,0.01
2019-02-21T21:47:09.626Z,-0.05
2019-02-21T21:49:38.975Z,-0.07
2019-02-21T21:52:08.282Z,-0.04
2019-02-21T21:54:38.074Z,-0.07
2019-02-21T21:57:07.367Z,-0.13
2019-02-21T21:59:36.713Z,-0.12
2019-02-21T22:02:06.152Z,-0.16
2019-02-21T22:04:35.457Z,-0.13
2019-02-21T22:07:04.894Z,-0.14
2019-02-21T22:09:34.243Z,-0.16
2019-02-21T22:12:03.638Z,-0.18
2019-02-21T22:14:32.936Z,-0.18
2019-02-21T22:17:02.319Z,-0.18
2019-02-21T22:19:31.644Z,-0.17
2019-02-21T22:22:00.946Z,-0.20
2019-02-21T22:24:30.350Z,-0.14
2019-02-21T22:26:59.671Z,-0.17
2019-02-21T22:29:28.948Z,-0.17
2019-02-21T22:31:58.396Z,-0.21
2019-02-21T22:34:27.774Z,-0.17
2019-02-21T22:36:57.089Z,-0.14
2019-02-21T22:39:26.427Z,-0.13
2019-02-21T22:41:55.740Z,-0.12
2019-02-21T22:44:25.043Z,-0.14
2019-02-21T22:46:54.393Z,-0.19
2019-02-21T22:49:23.683Z,-0.19
2019-02-21T22:51:53.170Z,-0.17
2019-02-21T22:54:22.450Z,-0.20
2019-02-21T22:56:51.852Z,-0.17
2019-02-21T22:59:21.123Z,-0.16
2019-02-21T23:01:50.630Z,-0.13
2019-02-21T23:04:26.069Z,-0.12
2019-02-21T23:07:17.517Z,-0.05
2019-02-21T23:09:46.917Z,-0.05
2019-02-21T23:12:16.188Z,-0.06
2019-02-21T23:14:45.513Z,-0.04
2019-02-21T23:17:14.908Z,-0.01
2019-02-21T23:19:44.239Z,-0.01
2019-02-21T23:22:13.545Z,0.02
2019-02-21T23:24:42.853Z,0.01
2019-02-21T23:27:12.164Z,-0.02
2019-02-21T23:29:41.458Z,-0.05
2019-02-21T23:32:10.843Z,-0.03
2019-02-21T23:34:42.884Z,-0.04
2019-02-21T23:37:12.237Z,-0.06
2019-02-21T23:39:41.528Z,0.00
2019-02-21T23:42:10.830Z,-0.01
2019-02-21T23:44:40.095Z,-0.02
2019-02-21T23:47:09.397Z,0.00
2019-02-21T23:49:38.755Z,-0.05
2019-02-21T23:52:08.058Z,-0.06
2019-02-21T23:54:37.333Z,-0.07
2019-02-21T23:57:06.675Z,-0.06
2019-02-21T23:59:36.031Z,-0.06
